sensor_id;sensor_type;location;lat;lon;timestamp;temperature;humidity
33741;DHT22;20065;48.380;10.892;2023-06-22T00:00:42;21.70;99.90
33741;DHT22;20065;48.380;10.892;2023-06-22T00:03:30;21.70;99.90
33741;DHT22;20065;48.380;10.892;2023-06-22T00:06:17;21.70;99.90
33741;DHT22;20065;48.380;10.892;2023-06-22T00:09:05;21.70;99.90
33741;DHT22;20065;48.380;10.892;2023-06-22T00:11:52;21.60;99.90
33741;DHT22;20065;48.380;10.892;2023-06-22T00:14:40;21.70;99.90
33741;DHT22;20065;48.380;10.892;2023-06-22T00:17:32;21.70;99.90
33741;DHT22;20065;48.380;10.892;2023-06-22T00:20:20;21.70;99.90
33741;DHT22;20065;48.380;10.892;2023-06-22T00:23:07;21.70;99.90
33741;DHT22;20065;48.380;10.892;2023-06-22T00:25:54;21.70;99.90
33741;DHT22;20065;48.380;10.892;2023-06-22T00:28:40;21.70;99.90
33741;DHT22;20065;48.380;10.892;2023-06-22T00:31:27;21.70;99.90
33741;DHT22;20065;48.380;10.892;2023-06-22T00:34:14;21.70;99.90
33741;DHT22;20065;48.380;10.892;2023-06-22T00:37:00;21.70;99.90
33741;DHT22;20065;48.380;10.892;2023-06-22T00:39:46;21.70;99.90
33741;DHT22;20065;48.380;10.892;2023-06-22T00:42:44;21.70;99.90
33741;DHT22;20065;48.380;10.892;2023-06-22T00:45:30;21.70;99.90
33741;DHT22;20065;48.380;10.892;2023-06-22T00:48:20;21.70;99.90
33741;DHT22;20065;48.380;10.892;2023-06-22T00:51:10;21.70;99.90
33741;DHT22;20065;48.380;10.892;2023-06-22T00:53:58;21.60;99.90
33741;DHT22;20065;48.380;10.892;2023-06-22T00:56:45;21.60;99.90
33741;DHT22;20065;48.380;10.892;2023-06-22T00:59:34;21.60;99.90
33741;DHT22;20065;48.380;10.892;2023-06-22T01:02:22;21.50;99.90
33741;DHT22;20065;48.380;10.892;2023-06-22T01:05:08;21.50;99.90
33741;DHT22;20065;48.380;10.892;2023-06-22T01:18:30;21.50;99.90
33741;DHT22;20065;48.380;10.892;2023-06-22T01:21:19;21.40;99.90
33741;DHT22;20065;48.380;10.892;2023-06-22T01:24:18;21.40;99.90
33741;DHT22;20065;48.380;10.892;2023-06-22T01:30:32;21.40;99.90
33741;DHT22;20065;48.380;10.892;2023-06-22T01:33:20;21.30;99.90
33741;DHT22;20065;48.380;10.892;2023-06-22T01:36:06;21.30;99.90
33741;DHT22;20065;48.380;10.892;2023-06-22T01:38:53;21.40;99.90
33741;DHT22;20065;48.380;10.892;2023-06-22T01:41:41;21.40;99.90
33741;DHT22;20065;48.380;10.892;2023-06-22T01:44:29;21.40;99.90
33741;DHT22;20065;48.380;10.892;2023-06-22T01:47:15;21.40;99.90
33741;DHT22;20065;48.380;10.892;2023-06-22T01:50:03;21.40;99.90
33741;DHT22;20065;48.380;10.892;2023-06-22T01:52:50;21.40;99.90
33741;DHT22;20065;48.380;10.892;2023-06-22T01:55:36;21.40;99.90
33741;DHT22;20065;48.380;10.892;2023-06-22T01:58:26;21.30;99.90
33741;DHT22;20065;48.380;10.892;2023-06-22T02:01:14;21.30;99.90
33741;DHT22;20065;48.380;10.892;2023-06-22T02:04:06;21.30;99.90
33741;DHT22;20065;48.380;10.892;2023-06-22T02:06:57;21.30;99.90
33741;DHT22;20065;48.380;10.892;2023-06-22T02:09:45;21.30;99.90
33741;DHT22;20065;48.380;10.892;2023-06-22T02:12:32;21.20;99.90
33741;DHT22;20065;48.380;10.892;2023-06-22T02:15:19;21.20;99.90
33741;DHT22;20065;48.380;10.892;2023-06-22T02:18:07;21.20;99.90
33741;DHT22;20065;48.380;10.892;2023-06-22T02:20:53;21.20;99.90
33741;DHT22;20065;48.380;10.892;2023-06-22T02:23:39;21.10;99.90
33741;DHT22;20065;48.380;10.892;2023-06-22T02:26:26;21.20;99.90
33741;DHT22;20065;48.380;10.892;2023-06-22T02:29:13;21.10;99.90
33741;DHT22;20065;48.380;10.892;2023-06-22T02:32:02;21.10;99.90
33741;DHT22;20065;48.380;10.892;2023-06-22T02:34:50;21.00;99.90
33741;DHT22;20065;48.380;10.892;2023-06-22T02:37:37;21.00;99.90
33741;DHT22;20065;48.380;10.892;2023-06-22T02:40:27;21.00;99.90
33741;DHT22;20065;48.380;10.892;2023-06-22T02:43:16;21.00;99.90
33741;DHT22;20065;48.380;10.892;2023-06-22T02:46:04;21.00;99.90
33741;DHT22;20065;48.380;10.892;2023-06-22T02:48:50;21.00;99.90
33741;DHT22;20065;48.380;10.892;2023-06-22T02:51:39;21.00;99.90
33741;DHT22;20065;48.380;10.892;2023-06-22T02:54:27;21.00;99.90
33741;DHT22;20065;48.380;10.892;2023-06-22T02:57:14;21.00;99.90
33741;DHT22;20065;48.380;10.892;2023-06-22T03:00:05;21.00;99.90
33741;DHT22;20065;48.380;10.892;2023-06-22T03:03:03;21.00;99.90
33741;DHT22;20065;48.380;10.892;2023-06-22T03:05:49;21.00;99.90
33741;DHT22;20065;48.380;10.892;2023-06-22T03:08:39;21.00;99.90
33741;DHT22;20065;48.380;10.892;2023-06-22T03:11:25;20.90;99.90
33741;DHT22;20065;48.380;10.892;2023-06-22T03:14:11;21.00;99.90
33741;DHT22;20065;48.380;10.892;2023-06-22T03:16:58;21.00;99.90
33741;DHT22;20065;48.380;10.892;2023-06-22T03:19:48;20.90;99.90
33741;DHT22;20065;48.380;10.892;2023-06-22T03:22:35;20.90;99.90
33741;DHT22;20065;48.380;10.892;2023-06-22T03:25:21;20.90;99.90
33741;DHT22;20065;48.380;10.892;2023-06-22T03:28:09;21.00;99.90
33741;DHT22;20065;48.380;10.892;2023-06-22T03:30:58;20.90;99.90
33741;DHT22;20065;48.380;10.892;2023-06-22T03:33:44;20.90;99.90
33741;DHT22;20065;48.380;10.892;2023-06-22T03:36:30;20.90;99.90
33741;DHT22;20065;48.380;10.892;2023-06-22T03:39:17;20.90;99.90
33741;DHT22;20065;48.380;10.892;2023-06-22T03:42:03;20.90;99.90
33741;DHT22;20065;48.380;10.892;2023-06-22T03:44:49;20.90;99.90
33741;DHT22;20065;48.380;10.892;2023-06-22T03:47:35;20.90;99.90
33741;DHT22;20065;48.380;10.892;2023-06-22T03:50:22;20.90;99.90
33741;DHT22;20065;48.380;10.892;2023-06-22T03:53:08;20.90;99.90
33741;DHT22;20065;48.380;10.892;2023-06-22T03:55:56;20.80;99.90
33741;DHT22;20065;48.380;10.892;2023-06-22T03:58:42;20.90;99.90
33741;DHT22;20065;48.380;10.892;2023-06-22T04:01:30;20.90;99.90
33741;DHT22;20065;48.380;10.892;2023-06-22T04:04:20;20.90;99.90
33741;DHT22;20065;48.380;10.892;2023-06-22T04:07:06;20.90;99.90
33741;DHT22;20065;48.380;10.892;2023-06-22T04:09:52;20.90;99.90
33741;DHT22;20065;48.380;10.892;2023-06-22T04:12:39;20.90;99.90
33741;DHT22;20065;48.380;10.892;2023-06-22T04:15:25;20.80;99.90
33741;DHT22;20065;48.380;10.892;2023-06-22T04:18:11;20.80;99.90
33741;DHT22;20065;48.380;10.892;2023-06-22T04:20:57;20.90;99.90
33741;DHT22;20065;48.380;10.892;2023-06-22T04:23:43;20.90;99.90
33741;DHT22;20065;48.380;10.892;2023-06-22T04:26:30;20.90;99.90
33741;DHT22;20065;48.380;10.892;2023-06-22T04:29:16;20.90;99.90
33741;DHT22;20065;48.380;10.892;2023-06-22T04:32:02;21.00;99.90
33741;DHT22;20065;48.380;10.892;2023-06-22T04:34:51;21.00;99.90
33741;DHT22;20065;48.380;10.892;2023-06-22T04:37:38;20.90;99.90
33741;DHT22;20065;48.380;10.892;2023-06-22T04:40:25;20.90;99.90
33741;DHT22;20065;48.380;10.892;2023-06-22T04:43:11;20.90;99.90
33741;DHT22;20065;48.380;10.892;2023-06-22T04:45:57;20.90;99.90
33741;DHT22;20065;48.380;10.892;2023-06-22T04:48:49;20.90;99.90
33741;DHT22;20065;48.380;10.892;2023-06-22T04:51:40;21.00;99.90
33741;DHT22;20065;48.380;10.892;2023-06-22T04:54:27;21.00;99.90
33741;DHT22;20065;48.380;10.892;2023-06-22T04:57:14;21.00;99.90
33741;DHT22;20065;48.380;10.892;2023-06-22T05:00:01;21.00;99.90
33741;DHT22;20065;48.380;10.892;2023-06-22T05:02:47;21.10;99.90
33741;DHT22;20065;48.380;10.892;2023-06-22T05:05:34;21.10;99.90
33741;DHT22;20065;48.380;10.892;2023-06-22T05:08:21;21.10;99.90
33741;DHT22;20065;48.380;10.892;2023-06-22T05:11:07;21.10;99.90
33741;DHT22;20065;48.380;10.892;2023-06-22T05:13:53;21.20;99.90
33741;DHT22;20065;48.380;10.892;2023-06-22T05:16:42;21.10;99.90
33741;DHT22;20065;48.380;10.892;2023-06-22T05:19:28;21.20;99.90
33741;DHT22;20065;48.380;10.892;2023-06-22T05:22:19;21.20;99.90
33741;DHT22;20065;48.380;10.892;2023-06-22T05:25:10;21.20;99.90
33741;DHT22;20065;48.380;10.892;2023-06-22T05:27:56;21.20;99.90
33741;DHT22;20065;48.380;10.892;2023-06-22T05:30:42;21.20;99.90
33741;DHT22;20065;48.380;10.892;2023-06-22T05:33:28;21.20;99.90
33741;DHT22;20065;48.380;10.892;2023-06-22T05:36:15;21.20;99.90
33741;DHT22;20065;48.380;10.892;2023-06-22T05:39:11;21.20;99.90
33741;DHT22;20065;48.380;10.892;2023-06-22T05:41:58;21.30;99.90
33741;DHT22;20065;48.380;10.892;2023-06-22T05:44:44;21.30;99.90
33741;DHT22;20065;48.380;10.892;2023-06-22T05:47:30;21.30;99.90
33741;DHT22;20065;48.380;10.892;2023-06-22T05:50:17;21.30;99.90
33741;DHT22;20065;48.380;10.892;2023-06-22T05:53:03;21.30;99.90
33741;DHT22;20065;48.380;10.892;2023-06-22T05:55:49;21.30;99.90
33741;DHT22;20065;48.380;10.892;2023-06-22T05:58:35;21.40;99.90
33741;DHT22;20065;48.380;10.892;2023-06-22T06:01:21;21.50;99.90
33741;DHT22;20065;48.380;10.892;2023-06-22T06:04:08;21.40;99.90
33741;DHT22;20065;48.380;10.892;2023-06-22T06:06:54;21.50;99.90
33741;DHT22;20065;48.380;10.892;2023-06-22T06:09:40;21.50;99.90
33741;DHT22;20065;48.380;10.892;2023-06-22T06:12:26;21.50;99.90
33741;DHT22;20065;48.380;10.892;2023-06-22T06:15:12;21.60;99.90
33741;DHT22;20065;48.380;10.892;2023-06-22T06:17:58;21.60;99.90
33741;DHT22;20065;48.380;10.892;2023-06-22T06:20:45;21.60;99.90
33741;DHT22;20065;48.380;10.892;2023-06-22T06:23:31;21.60;99.90
33741;DHT22;20065;48.380;10.892;2023-06-22T06:26:17;21.60;99.90
33741;DHT22;20065;48.380;10.892;2023-06-22T06:29:03;21.60;99.90
33741;DHT22;20065;48.380;10.892;2023-06-22T06:31:49;21.70;99.90
33741;DHT22;20065;48.380;10.892;2023-06-22T06:34:36;21.70;99.90
33741;DHT22;20065;48.380;10.892;2023-06-22T06:37:22;21.80;99.90
33741;DHT22;20065;48.380;10.892;2023-06-22T06:40:09;21.80;99.90
33741;DHT22;20065;48.380;10.892;2023-06-22T06:42:56;21.80;99.90
33741;DHT22;20065;48.380;10.892;2023-06-22T06:45:42;21.80;99.90
33741;DHT22;20065;48.380;10.892;2023-06-22T06:48:28;21.90;99.90
33741;DHT22;20065;48.380;10.892;2023-06-22T06:51:18;21.90;99.90
33741;DHT22;20065;48.380;10.892;2023-06-22T06:54:04;22.00;99.90
33741;DHT22;20065;48.380;10.892;2023-06-22T06:56:50;21.90;99.90
33741;DHT22;20065;48.380;10.892;2023-06-22T06:59:36;22.00;99.90
33741;DHT22;20065;48.380;10.892;2023-06-22T07:02:23;22.00;99.90
33741;DHT22;20065;48.380;10.892;2023-06-22T07:05:11;22.10;99.90
33741;DHT22;20065;48.380;10.892;2023-06-22T07:07:57;22.10;99.90
33741;DHT22;20065;48.380;10.892;2023-06-22T07:10:43;22.20;99.90
33741;DHT22;20065;48.380;10.892;2023-06-22T07:13:29;22.30;99.90
33741;DHT22;20065;48.380;10.892;2023-06-22T07:16:16;22.30;99.90
33741;DHT22;20065;48.380;10.892;2023-06-22T07:19:02;22.30;99.90
33741;DHT22;20065;48.380;10.892;2023-06-22T07:21:48;22.40;99.90
33741;DHT22;20065;48.380;10.892;2023-06-22T07:24:34;22.40;99.90
33741;DHT22;20065;48.380;10.892;2023-06-22T07:27:21;22.50;99.90
33741;DHT22;20065;48.380;10.892;2023-06-22T07:30:07;22.50;99.90
33741;DHT22;20065;48.380;10.892;2023-06-22T07:32:54;22.50;99.90
33741;DHT22;20065;48.380;10.892;2023-06-22T07:35:40;22.60;99.90
33741;DHT22;20065;48.380;10.892;2023-06-22T07:38:26;22.60;99.90
33741;DHT22;20065;48.380;10.892;2023-06-22T07:41:12;22.60;99.90
33741;DHT22;20065;48.380;10.892;2023-06-22T07:43:59;22.60;99.90
33741;DHT22;20065;48.380;10.892;2023-06-22T07:46:46;22.60;99.90
33741;DHT22;20065;48.380;10.892;2023-06-22T07:49:32;22.70;99.90
33741;DHT22;20065;48.380;10.892;2023-06-22T07:52:18;22.70;99.90
33741;DHT22;20065;48.380;10.892;2023-06-22T07:55:04;22.80;99.90
33741;DHT22;20065;48.380;10.892;2023-06-22T07:57:54;22.80;99.90
33741;DHT22;20065;48.380;10.892;2023-06-22T08:00:40;22.90;99.90
33741;DHT22;20065;48.380;10.892;2023-06-22T08:03:26;22.90;99.90
33741;DHT22;20065;48.380;10.892;2023-06-22T08:06:12;23.00;99.90
33741;DHT22;20065;48.380;10.892;2023-06-22T08:08:59;23.10;99.90
33741;DHT22;20065;48.380;10.892;2023-06-22T08:11:45;23.20;99.90
33741;DHT22;20065;48.380;10.892;2023-06-22T08:14:31;23.20;99.90
33741;DHT22;20065;48.380;10.892;2023-06-22T08:17:18;23.30;99.90
33741;DHT22;20065;48.380;10.892;2023-06-22T08:20:05;23.30;99.90
33741;DHT22;20065;48.380;10.892;2023-06-22T08:22:56;23.30;99.90
33741;DHT22;20065;48.380;10.892;2023-06-22T08:25:44;23.30;99.90
33741;DHT22;20065;48.380;10.892;2023-06-22T08:28:30;23.30;99.90
33741;DHT22;20065;48.380;10.892;2023-06-22T08:31:16;23.40;99.90
33741;DHT22;20065;48.380;10.892;2023-06-22T08:34:02;23.50;99.90
33741;DHT22;20065;48.380;10.892;2023-06-22T08:36:48;23.50;99.90
33741;DHT22;20065;48.380;10.892;2023-06-22T08:39:37;23.50;99.90
33741;DHT22;20065;48.380;10.892;2023-06-22T08:42:25;23.50;99.90
33741;DHT22;20065;48.380;10.892;2023-06-22T08:45:12;23.50;99.90
33741;DHT22;20065;48.380;10.892;2023-06-22T08:47:58;23.50;99.90
33741;DHT22;20065;48.380;10.892;2023-06-22T08:50:44;23.60;99.90
33741;DHT22;20065;48.380;10.892;2023-06-22T08:53:30;23.60;99.90
33741;DHT22;20065;48.380;10.892;2023-06-22T08:56:17;23.80;99.90
33741;DHT22;20065;48.380;10.892;2023-06-22T08:59:03;23.90;99.90
33741;DHT22;20065;48.380;10.892;2023-06-22T09:01:50;23.90;99.90
33741;DHT22;20065;48.380;10.892;2023-06-22T09:04:36;24.00;99.90
33741;DHT22;20065;48.380;10.892;2023-06-22T09:07:22;24.00;99.90
33741;DHT22;20065;48.380;10.892;2023-06-22T09:10:09;24.00;99.90
33741;DHT22;20065;48.380;10.892;2023-06-22T09:12:57;24.00;99.90
33741;DHT22;20065;48.380;10.892;2023-06-22T09:15:43;24.10;99.90
33741;DHT22;20065;48.380;10.892;2023-06-22T09:18:29;24.20;99.90
33741;DHT22;20065;48.380;10.892;2023-06-22T09:21:15;24.20;99.90
33741;DHT22;20065;48.380;10.892;2023-06-22T09:24:01;24.20;99.90
33741;DHT22;20065;48.380;10.892;2023-06-22T09:26:48;24.30;99.90
33741;DHT22;20065;48.380;10.892;2023-06-22T09:29:34;24.40;99.90
33741;DHT22;20065;48.380;10.892;2023-06-22T09:32:20;24.40;99.90
33741;DHT22;20065;48.380;10.892;2023-06-22T09:35:07;24.50;99.90
33741;DHT22;20065;48.380;10.892;2023-06-22T09:37:54;24.50;99.90
33741;DHT22;20065;48.380;10.892;2023-06-22T09:40:40;24.50;99.90
33741;DHT22;20065;48.380;10.892;2023-06-22T09:43:27;24.60;99.90
33741;DHT22;20065;48.380;10.892;2023-06-22T09:46:15;24.70;99.90
33741;DHT22;20065;48.380;10.892;2023-06-22T09:49:01;24.70;99.90
33741;DHT22;20065;48.380;10.892;2023-06-22T09:51:48;24.70;99.90
33741;DHT22;20065;48.380;10.892;2023-06-22T09:54:35;24.80;99.90
33741;DHT22;20065;48.380;10.892;2023-06-22T09:57:21;25.00;99.90
33741;DHT22;20065;48.380;10.892;2023-06-22T10:00:08;25.10;99.90
33741;DHT22;20065;48.380;10.892;2023-06-22T10:02:55;25.00;99.90
33741;DHT22;20065;48.380;10.892;2023-06-22T10:05:44;25.10;99.90
33741;DHT22;20065;48.380;10.892;2023-06-22T10:08:30;25.30;99.90
33741;DHT22;20065;48.380;10.892;2023-06-22T10:11:16;25.40;99.90
33741;DHT22;20065;48.380;10.892;2023-06-22T10:14:02;25.50;99.90
33741;DHT22;20065;48.380;10.892;2023-06-22T10:16:51;25.60;99.90
33741;DHT22;20065;48.380;10.892;2023-06-22T10:19:38;25.70;99.90
33741;DHT22;20065;48.380;10.892;2023-06-22T10:22:24;25.70;99.90
33741;DHT22;20065;48.380;10.892;2023-06-22T10:25:11;25.70;99.90
33741;DHT22;20065;48.380;10.892;2023-06-22T10:27:58;25.70;99.90
33741;DHT22;20065;48.380;10.892;2023-06-22T10:30:44;25.70;99.90
33741;DHT22;20065;48.380;10.892;2023-06-22T10:33:30;25.70;99.90
33741;DHT22;20065;48.380;10.892;2023-06-22T10:36:17;25.70;99.90
33741;DHT22;20065;48.380;10.892;2023-06-22T10:39:21;25.70;99.90
33741;DHT22;20065;48.380;10.892;2023-06-22T10:42:07;25.80;99.90
33741;DHT22;20065;48.380;10.892;2023-06-22T10:44:53;25.80;99.90
33741;DHT22;20065;48.380;10.892;2023-06-22T10:47:39;25.80;99.90
33741;DHT22;20065;48.380;10.892;2023-06-22T10:50:28;25.80;99.90
33741;DHT22;20065;48.380;10.892;2023-06-22T10:53:14;25.90;99.90
33741;DHT22;20065;48.380;10.892;2023-06-22T10:56:00;25.90;99.90
33741;DHT22;20065;48.380;10.892;2023-06-22T10:58:46;26.00;99.90
33741;DHT22;20065;48.380;10.892;2023-06-22T11:01:32;26.10;99.90
33741;DHT22;20065;48.380;10.892;2023-06-22T11:04:22;26.00;99.90
33741;DHT22;20065;48.380;10.892;2023-06-22T11:07:09;26.00;99.90
33741;DHT22;20065;48.380;10.892;2023-06-22T11:09:55;26.00;99.90
33741;DHT22;20065;48.380;10.892;2023-06-22T11:12:42;26.00;99.90
33741;DHT22;20065;48.380;10.892;2023-06-22T11:15:28;26.00;99.90
33741;DHT22;20065;48.380;10.892;2023-06-22T11:18:14;26.10;99.90
33741;DHT22;20065;48.380;10.892;2023-06-22T11:21:01;26.20;99.90
33741;DHT22;20065;48.380;10.892;2023-06-22T11:23:47;26.20;99.90
33741;DHT22;20065;48.380;10.892;2023-06-22T11:26:34;26.20;99.90
33741;DHT22;20065;48.380;10.892;2023-06-22T11:29:21;26.40;99.90
33741;DHT22;20065;48.380;10.892;2023-06-22T11:32:41;26.60;99.90
33741;DHT22;20065;48.380;10.892;2023-06-22T11:35:36;26.70;99.90
33741;DHT22;20065;48.380;10.892;2023-06-22T11:38:35;26.80;99.90
33741;DHT22;20065;48.380;10.892;2023-06-22T11:41:32;26.80;99.90
33741;DHT22;20065;48.380;10.892;2023-06-22T11:44:19;26.60;99.90
33741;DHT22;20065;48.380;10.892;2023-06-22T11:47:05;26.60;99.90
33741;DHT22;20065;48.380;10.892;2023-06-22T11:49:52;26.60;99.90
33741;DHT22;20065;48.380;10.892;2023-06-22T11:52:38;26.60;99.90
33741;DHT22;20065;48.380;10.892;2023-06-22T11:55:24;26.70;99.90
33741;DHT22;20065;48.380;10.892;2023-06-22T11:58:14;27.00;99.90
33741;DHT22;20065;48.380;10.892;2023-06-22T12:01:00;27.10;99.90
33741;DHT22;20065;48.380;10.892;2023-06-22T12:03:46;27.20;99.90
33741;DHT22;20065;48.380;10.892;2023-06-22T12:06:38;27.30;99.90
33741;DHT22;20065;48.380;10.892;2023-06-22T12:09:27;27.30;99.90
33741;DHT22;20065;48.380;10.892;2023-06-22T12:12:14;27.20;99.90
33741;DHT22;20065;48.380;10.892;2023-06-22T12:15:00;27.20;99.90
33741;DHT22;20065;48.380;10.892;2023-06-22T12:17:55;27.10;99.90
33741;DHT22;20065;48.380;10.892;2023-06-22T12:20:42;27.20;99.90
33741;DHT22;20065;48.380;10.892;2023-06-22T12:23:28;27.30;99.90
33741;DHT22;20065;48.380;10.892;2023-06-22T12:26:14;27.30;99.90
33741;DHT22;20065;48.380;10.892;2023-06-22T12:29:01;27.30;99.90
33741;DHT22;20065;48.380;10.892;2023-06-22T12:31:47;27.30;99.90
33741;DHT22;20065;48.380;10.892;2023-06-22T12:34:33;27.30;99.90
33741;DHT22;20065;48.380;10.892;2023-06-22T12:37:20;27.50;99.90
33741;DHT22;20065;48.380;10.892;2023-06-22T12:40:07;27.10;99.90
33741;DHT22;20065;48.380;10.892;2023-06-22T12:42:53;27.30;99.90
33741;DHT22;20065;48.380;10.892;2023-06-22T12:45:39;27.30;99.90
33741;DHT22;20065;48.380;10.892;2023-06-22T12:48:27;27.40;99.90
33741;DHT22;20065;48.380;10.892;2023-06-22T12:51:21;27.40;99.90
33741;DHT22;20065;48.380;10.892;2023-06-22T12:54:11;27.60;99.90
33741;DHT22;20065;48.380;10.892;2023-06-22T12:57:01;27.80;99.90
33741;DHT22;20065;48.380;10.892;2023-06-22T12:59:53;27.90;99.90
33741;DHT22;20065;48.380;10.892;2023-06-22T13:03:03;28.00;99.90
33741;DHT22;20065;48.380;10.892;2023-06-22T13:05:58;28.10;99.90
33741;DHT22;20065;48.380;10.892;2023-06-22T13:08:48;28.10;99.90
33741;DHT22;20065;48.380;10.892;2023-06-22T13:11:34;28.10;99.90
33741;DHT22;20065;48.380;10.892;2023-06-22T13:14:23;28.00;99.90
33741;DHT22;20065;48.380;10.892;2023-06-22T13:17:12;28.10;99.90
33741;DHT22;20065;48.380;10.892;2023-06-22T13:20:04;28.10;99.90
33741;DHT22;20065;48.380;10.892;2023-06-22T13:26:52;28.40;99.90
33741;DHT22;20065;48.380;10.892;2023-06-22T13:29:43;28.00;99.90
33741;DHT22;20065;48.380;10.892;2023-06-22T13:32:33;28.00;99.90
33741;DHT22;20065;48.380;10.892;2023-06-22T13:35:21;28.00;99.90
33741;DHT22;20065;48.380;10.892;2023-06-22T14:02:19;28.30;99.90
33741;DHT22;20065;48.380;10.892;2023-06-22T14:05:06;28.10;99.90
33741;DHT22;20065;48.380;10.892;2023-06-22T14:07:52;28.10;99.90
33741;DHT22;20065;48.380;10.892;2023-06-22T14:10:42;28.10;99.90
33741;DHT22;20065;48.380;10.892;2023-06-22T14:13:34;28.30;99.90
33741;DHT22;20065;48.380;10.892;2023-06-22T14:16:29;28.10;99.90
33741;DHT22;20065;48.380;10.892;2023-06-22T14:19:25;28.10;99.90
33741;DHT22;20065;48.380;10.892;2023-06-22T14:22:12;27.50;99.90
33741;DHT22;20065;48.380;10.892;2023-06-22T14:25:01;28.70;99.90
33741;DHT22;20065;48.380;10.892;2023-06-22T14:27:47;27.70;99.90
33741;DHT22;20065;48.380;10.892;2023-06-22T14:30:37;27.90;99.90
33741;DHT22;20065;48.380;10.892;2023-06-22T14:33:27;28.10;99.90
33741;DHT22;20065;48.380;10.892;2023-06-22T14:36:18;28.10;99.90
33741;DHT22;20065;48.380;10.892;2023-06-22T14:39:17;28.30;99.90
33741;DHT22;20065;48.380;10.892;2023-06-22T14:42:15;28.60;99.90
33741;DHT22;20065;48.380;10.892;2023-06-22T14:45:02;28.20;99.90
33741;DHT22;20065;48.380;10.892;2023-06-22T14:47:59;28.30;99.90
33741;DHT22;20065;48.380;10.892;2023-06-22T14:51:29;28.40;99.90
33741;DHT22;20065;48.380;10.892;2023-06-22T14:54:18;28.40;99.90
33741;DHT22;20065;48.380;10.892;2023-06-22T14:57:07;28.40;99.90
33741;DHT22;20065;48.380;10.892;2023-06-22T14:59:59;28.40;99.90
33741;DHT22;20065;48.380;10.892;2023-06-22T15:02:47;28.30;99.90
33741;DHT22;20065;48.380;10.892;2023-06-22T15:05:47;28.40;99.90
33741;DHT22;20065;48.380;10.892;2023-06-22T15:08:36;28.50;99.90
33741;DHT22;20065;48.380;10.892;2023-06-22T15:11:30;28.50;99.90
33741;DHT22;20065;48.380;10.892;2023-06-22T15:14:20;28.40;99.90
33741;DHT22;20065;48.380;10.892;2023-06-22T15:17:26;28.40;99.90
33741;DHT22;20065;48.380;10.892;2023-06-22T15:20:20;28.40;99.90
33741;DHT22;20065;48.380;10.892;2023-06-22T15:23:09;28.70;99.90
33741;DHT22;20065;48.380;10.892;2023-06-22T15:26:21;28.60;99.90
33741;DHT22;20065;48.380;10.892;2023-06-22T15:29:13;28.40;99.90
33741;DHT22;20065;48.380;10.892;2023-06-22T15:32:07;28.30;99.90
33741;DHT22;20065;48.380;10.892;2023-06-22T15:35:10;28.30;99.90
33741;DHT22;20065;48.380;10.892;2023-06-22T15:38:10;28.30;99.90
33741;DHT22;20065;48.380;10.892;2023-06-22T15:40:59;28.30;99.90
33741;DHT22;20065;48.380;10.892;2023-06-22T15:43:56;28.10;99.90
33741;DHT22;20065;48.380;10.892;2023-06-22T15:50:47;28.90;99.90
33741;DHT22;20065;48.380;10.892;2023-06-22T15:53:53;27.10;99.90
33741;DHT22;20065;48.380;10.892;2023-06-22T16:00:11;28.00;99.90
33741;DHT22;20065;48.380;10.892;2023-06-22T16:03:11;28.10;99.90
33741;DHT22;20065;48.380;10.892;2023-06-22T16:37:28;27.50;99.90
33741;DHT22;20065;48.380;10.892;2023-06-22T16:40:14;27.40;99.90
33741;DHT22;20065;48.380;10.892;2023-06-22T16:43:03;27.30;99.90
33741;DHT22;20065;48.380;10.892;2023-06-22T16:45:55;27.30;99.90
33741;DHT22;20065;48.380;10.892;2023-06-22T16:48:41;27.30;99.90
33741;DHT22;20065;48.380;10.892;2023-06-22T16:51:38;27.30;99.90
33741;DHT22;20065;48.380;10.892;2023-06-22T16:54:31;27.20;99.90
33741;DHT22;20065;48.380;10.892;2023-06-22T16:57:21;27.30;99.90
33741;DHT22;20065;48.380;10.892;2023-06-22T17:00:11;26.80;99.90
33741;DHT22;20065;48.380;10.892;2023-06-22T17:03:03;27.20;99.90
33741;DHT22;20065;48.380;10.892;2023-06-22T17:05:57;27.00;99.90
33741;DHT22;20065;48.380;10.892;2023-06-22T17:08:58;27.20;99.90
33741;DHT22;20065;48.380;10.892;2023-06-22T17:12:02;27.40;99.90
33741;DHT22;20065;48.380;10.892;2023-06-22T17:15:19;27.20;99.90
33741;DHT22;20065;48.380;10.892;2023-06-22T17:19:04;27.10;99.90
33741;DHT22;20065;48.380;10.892;2023-06-22T17:22:54;26.90;99.90
33741;DHT22;20065;48.380;10.892;2023-06-22T17:25:52;27.00;99.90
33741;DHT22;20065;48.380;10.892;2023-06-22T17:29:08;27.00;99.90
33741;DHT22;20065;48.380;10.892;2023-06-22T17:31:55;26.90;99.90
33741;DHT22;20065;48.380;10.892;2023-06-22T17:34:41;26.80;99.90
33741;DHT22;20065;48.380;10.892;2023-06-22T17:37:32;26.70;99.90
33741;DHT22;20065;48.380;10.892;2023-06-22T17:40:24;26.80;99.90
33741;DHT22;20065;48.380;10.892;2023-06-22T17:43:12;26.80;99.90
33741;DHT22;20065;48.380;10.892;2023-06-22T17:45:58;26.70;99.90
33741;DHT22;20065;48.380;10.892;2023-06-22T17:48:47;26.60;99.90
33741;DHT22;20065;48.380;10.892;2023-06-22T17:51:33;26.60;99.90
33741;DHT22;20065;48.380;10.892;2023-06-22T17:54:20;26.60;99.90
33741;DHT22;20065;48.380;10.892;2023-06-22T17:57:17;26.60;99.90
33741;DHT22;20065;48.380;10.892;2023-06-22T18:00:05;26.60;99.90
33741;DHT22;20065;48.380;10.892;2023-06-22T18:02:58;26.50;99.90
33741;DHT22;20065;48.380;10.892;2023-06-22T18:05:47;26.40;99.90
33741;DHT22;20065;48.380;10.892;2023-06-22T18:08:34;26.30;99.90
33741;DHT22;20065;48.380;10.892;2023-06-22T18:11:20;26.20;99.90
33741;DHT22;20065;48.380;10.892;2023-06-22T18:14:17;26.30;99.90
33741;DHT22;20065;48.380;10.892;2023-06-22T18:17:03;26.30;99.90
33741;DHT22;20065;48.380;10.892;2023-06-22T18:19:50;26.30;99.90
33741;DHT22;20065;48.380;10.892;2023-06-22T18:22:38;26.30;99.90
33741;DHT22;20065;48.380;10.892;2023-06-22T18:25:24;26.20;99.90
33741;DHT22;20065;48.380;10.892;2023-06-22T18:28:12;26.10;99.90
33741;DHT22;20065;48.380;10.892;2023-06-22T18:30:59;26.10;99.90
33741;DHT22;20065;48.380;10.892;2023-06-22T18:33:49;26.20;99.90
33741;DHT22;20065;48.380;10.892;2023-06-22T18:39:26;26.10;99.90
33741;DHT22;20065;48.380;10.892;2023-06-22T18:42:14;26.10;99.90
33741;DHT22;20065;48.380;10.892;2023-06-22T18:45:01;26.10;99.90
33741;DHT22;20065;48.380;10.892;2023-06-22T18:47:55;26.30;99.90
33741;DHT22;20065;48.380;10.892;2023-06-22T18:50:45;26.30;99.90
33741;DHT22;20065;48.380;10.892;2023-06-22T18:53:35;26.40;99.90